sensor_id;sensor_type;location;lat;lon;timestamp;temperature;humidity
8662;DHT22;29684;47.722;9.388;2023-06-05T00:01:29;18.80;70.10
8662;DHT22;29684;47.722;9.388;2023-06-05T00:04:13;18.80;70.30
8662;DHT22;29684;47.722;9.388;2023-06-05T00:06:58;18.80;70.90
8662;DHT22;29684;47.722;9.388;2023-06-05T00:09:42;18.80;70.50
8662;DHT22;29684;47.722;9.388;2023-06-05T00:12:26;18.80;70.60
8662;DHT22;29684;47.722;9.388;2023-06-05T00:15:10;18.80;70.70
8662;DHT22;29684;47.722;9.388;2023-06-05T00:17:55;18.70;70.80
8662;DHT22;29684;47.722;9.388;2023-06-05T00:20:40;18.70;71.10
8662;DHT22;29684;47.722;9.388;2023-06-05T00:23:24;18.50;70.90
8662;DHT22;29684;47.722;9.388;2023-06-05T00:26:08;18.50;71.40
8662;DHT22;29684;47.722;9.388;2023-06-05T00:28:52;18.50;71.40
8662;DHT22;29684;47.722;9.388;2023-06-05T00:31:37;18.60;71.40
8662;DHT22;29684;47.722;9.388;2023-06-05T00:34:21;18.50;71.20
8662;DHT22;29684;47.722;9.388;2023-06-05T00:37:05;18.50;71.40
8662;DHT22;29684;47.722;9.388;2023-06-05T00:39:50;18.60;71.50
8662;DHT22;29684;47.722;9.388;2023-06-05T00:42:34;18.50;71.40
8662;DHT22;29684;47.722;9.388;2023-06-05T00:45:18;18.40;71.60
8662;DHT22;29684;47.722;9.388;2023-06-05T00:48:03;18.40;71.80
8662;DHT22;29684;47.722;9.388;2023-06-05T00:50:47;18.30;71.80
8662;DHT22;29684;47.722;9.388;2023-06-05T00:53:33;18.40;71.90
8662;DHT22;29684;47.722;9.388;2023-06-05T00:56:18;18.40;72.20
8662;DHT22;29684;47.722;9.388;2023-06-05T00:59:05;18.30;72.30
8662;DHT22;29684;47.722;9.388;2023-06-05T01:01:49;18.40;72.30
8662;DHT22;29684;47.722;9.388;2023-06-05T01:04:34;18.30;72.20
8662;DHT22;29684;47.722;9.388;2023-06-05T01:07:20;18.40;72.40
8662;DHT22;29684;47.722;9.388;2023-06-05T01:10:09;18.30;72.50
8662;DHT22;29684;47.722;9.388;2023-06-05T01:13:35;18.30;72.70
8662;DHT22;29684;47.722;9.388;2023-06-05T01:16:22;18.20;72.60
8662;DHT22;29684;47.722;9.388;2023-06-05T01:19:15;18.20;72.90
8662;DHT22;29684;47.722;9.388;2023-06-05T01:22:00;18.20;73.10
8662;DHT22;29684;47.722;9.388;2023-06-05T01:24:45;18.10;73.10
8662;DHT22;29684;47.722;9.388;2023-06-05T01:27:54;18.10;73.50
8662;DHT22;29684;47.722;9.388;2023-06-05T01:30:54;18.10;73.60
8662;DHT22;29684;47.722;9.388;2023-06-05T01:33:59;18.00;74.60
8662;DHT22;29684;47.722;9.388;2023-06-05T01:36:46;17.80;76.20
8662;DHT22;29684;47.722;9.388;2023-06-05T01:39:31;17.10;79.10
8662;DHT22;29684;47.722;9.388;2023-06-05T01:42:16;16.60;80.40
8662;DHT22;29684;47.722;9.388;2023-06-05T01:45:01;16.40;81.70
8662;DHT22;29684;47.722;9.388;2023-06-05T01:47:47;16.20;82.50
8662;DHT22;29684;47.722;9.388;2023-06-05T01:50:35;16.10;83.90
8662;DHT22;29684;47.722;9.388;2023-06-05T01:53:20;15.90;84.00
8662;DHT22;29684;47.722;9.388;2023-06-05T01:56:04;15.90;85.10
8662;DHT22;29684;47.722;9.388;2023-06-05T01:58:50;15.80;86.00
8662;DHT22;29684;47.722;9.388;2023-06-05T02:01:37;15.60;86.90
8662;DHT22;29684;47.722;9.388;2023-06-05T02:04:22;15.40;88.50
8662;DHT22;29684;47.722;9.388;2023-06-05T02:07:06;15.30;90.10
8662;DHT22;29684;47.722;9.388;2023-06-05T02:09:51;15.20;90.70
8662;DHT22;29684;47.722;9.388;2023-06-05T02:12:35;15.10;91.80
8662;DHT22;29684;47.722;9.388;2023-06-05T02:15:25;15.00;92.80
8662;DHT22;29684;47.722;9.388;2023-06-05T02:18:10;13.80;93.20
8662;DHT22;29684;47.722;9.388;2023-06-05T02:20:55;14.80;94.70
8662;DHT22;29684;47.722;9.388;2023-06-05T02:23:40;14.80;95.40
8662;DHT22;29684;47.722;9.388;2023-06-05T02:26:24;14.80;96.10
8662;DHT22;29684;47.722;9.388;2023-06-05T02:29:09;14.60;96.40
8662;DHT22;29684;47.722;9.388;2023-06-05T02:31:54;14.40;97.60
8662;DHT22;29684;47.722;9.388;2023-06-05T02:34:38;14.50;98.40
8662;DHT22;29684;47.722;9.388;2023-06-05T02:37:24;14.50;99.00
8662;DHT22;29684;47.722;9.388;2023-06-05T02:40:12;14.40;99.80
8662;DHT22;29684;47.722;9.388;2023-06-05T02:42:57;14.50;99.90
8662;DHT22;29684;47.722;9.388;2023-06-05T02:45:41;14.40;99.90
8662;DHT22;29684;47.722;9.388;2023-06-05T02:48:25;14.50;99.90
8662;DHT22;29684;47.722;9.388;2023-06-05T02:51:09;14.40;99.90
8662;DHT22;29684;47.722;9.388;2023-06-05T02:53:54;14.50;99.90
8662;DHT22;29684;47.722;9.388;2023-06-05T02:56:39;14.50;99.90
8662;DHT22;29684;47.722;9.388;2023-06-05T02:59:23;14.40;99.90
8662;DHT22;29684;47.722;9.388;2023-06-05T03:02:09;14.30;99.90
8662;DHT22;29684;47.722;9.388;2023-06-05T03:04:53;14.20;99.90
8662;DHT22;29684;47.722;9.388;2023-06-05T03:07:39;13.90;99.90
8662;DHT22;29684;47.722;9.388;2023-06-05T03:10:24;14.20;99.90
8662;DHT22;29684;47.722;9.388;2023-06-05T03:13:09;14.10;99.90
8662;DHT22;29684;47.722;9.388;2023-06-05T03:15:57;14.00;99.90
8662;DHT22;29684;47.722;9.388;2023-06-05T03:18:42;14.00;99.90
8662;DHT22;29684;47.722;9.388;2023-06-05T03:21:26;14.00;99.90
8662;DHT22;29684;47.722;9.388;2023-06-05T03:24:11;14.10;99.90
8662;DHT22;29684;47.722;9.388;2023-06-05T03:26:58;13.90;99.90
8662;DHT22;29684;47.722;9.388;2023-06-05T03:29:42;13.80;99.90
8662;DHT22;29684;47.722;9.388;2023-06-05T03:32:26;13.80;99.90
8662;DHT22;29684;47.722;9.388;2023-06-05T03:35:11;13.50;99.90
8662;DHT22;29684;47.722;9.388;2023-06-05T03:37:55;13.40;99.90
8662;DHT22;29684;47.722;9.388;2023-06-05T03:40:39;13.50;99.90
8662;DHT22;29684;47.722;9.388;2023-06-05T03:43:23;13.40;99.90
8662;DHT22;29684;47.722;9.388;2023-06-05T03:46:08;13.40;99.90
8662;DHT22;29684;47.722;9.388;2023-06-05T03:48:54;13.40;99.90
8662;DHT22;29684;47.722;9.388;2023-06-05T03:51:42;13.30;99.90
8662;DHT22;29684;47.722;9.388;2023-06-05T03:54:28;13.50;99.90
8662;DHT22;29684;47.722;9.388;2023-06-05T03:57:13;13.40;99.90
8662;DHT22;29684;47.722;9.388;2023-06-05T03:59:58;13.50;99.90
8662;DHT22;29684;47.722;9.388;2023-06-05T04:02:42;13.60;99.90
8662;DHT22;29684;47.722;9.388;2023-06-05T04:05:26;13.60;99.90
8662;DHT22;29684;47.722;9.388;2023-06-05T04:08:10;13.90;99.90
8662;DHT22;29684;47.722;9.388;2023-06-05T04:10:55;13.90;99.90
8662;DHT22;29684;47.722;9.388;2023-06-05T04:13:39;13.80;99.90
8662;DHT22;29684;47.722;9.388;2023-06-05T04:16:23;14.00;99.90
8662;DHT22;29684;47.722;9.388;2023-06-05T04:19:11;14.00;99.90
8662;DHT22;29684;47.722;9.388;2023-06-05T04:21:56;14.00;99.90
8662;DHT22;29684;47.722;9.388;2023-06-05T04:24:40;14.10;99.90
8662;DHT22;29684;47.722;9.388;2023-06-05T04:27:26;14.40;99.90
8662;DHT22;29684;47.722;9.388;2023-06-05T04:30:13;14.50;99.90
8662;DHT22;29684;47.722;9.388;2023-06-05T04:32:57;14.70;99.90
8662;DHT22;29684;47.722;9.388;2023-06-05T04:35:42;14.60;99.90
8662;DHT22;29684;47.722;9.388;2023-06-05T04:38:26;14.60;99.90
8662;DHT22;29684;47.722;9.388;2023-06-05T04:41:10;14.50;99.90
8662;DHT22;29684;47.722;9.388;2023-06-05T04:43:55;14.50;99.90
8662;DHT22;29684;47.722;9.388;2023-06-05T04:46:41;14.50;99.90
8662;DHT22;29684;47.722;9.388;2023-06-05T04:49:26;14.80;99.90
8662;DHT22;29684;47.722;9.388;2023-06-05T04:52:12;15.00;99.90
8662;DHT22;29684;47.722;9.388;2023-06-05T04:54:59;15.10;99.90
8662;DHT22;29684;47.722;9.388;2023-06-05T04:57:45;15.00;99.90
8662;DHT22;29684;47.722;9.388;2023-06-05T05:00:29;15.10;99.90
8662;DHT22;29684;47.722;9.388;2023-06-05T05:03:13;14.60;99.90
8662;DHT22;29684;47.722;9.388;2023-06-05T05:05:58;14.50;99.90
8662;DHT22;29684;47.722;9.388;2023-06-05T05:08:43;14.40;99.90
8662;DHT22;29684;47.722;9.388;2023-06-05T05:11:30;14.40;99.90
8662;DHT22;29684;47.722;9.388;2023-06-05T05:14:15;14.50;99.90
8662;DHT22;29684;47.722;9.388;2023-06-05T05:17:00;14.50;99.90
8662;DHT22;29684;47.722;9.388;2023-06-05T05:19:45;14.90;99.90
8662;DHT22;29684;47.722;9.388;2023-06-05T05:22:29;15.00;99.90
8662;DHT22;29684;47.722;9.388;2023-06-05T05:25:13;15.00;99.90
8662;DHT22;29684;47.722;9.388;2023-06-05T05:27:58;14.80;99.90
8662;DHT22;29684;47.722;9.388;2023-06-05T05:30:42;14.90;99.90
8662;DHT22;29684;47.722;9.388;2023-06-05T05:33:26;15.10;99.90
8662;DHT22;29684;47.722;9.388;2023-06-05T05:36:10;15.30;99.90
8662;DHT22;29684;47.722;9.388;2023-06-05T05:38:55;15.60;99.90
8662;DHT22;29684;47.722;9.388;2023-06-05T05:41:40;15.80;99.90
8662;DHT22;29684;47.722;9.388;2023-06-05T05:44:24;15.70;99.90
8662;DHT22;29684;47.722;9.388;2023-06-05T05:47:08;15.60;99.90
8662;DHT22;29684;47.722;9.388;2023-06-05T05:49:53;15.60;99.90
8662;DHT22;29684;47.722;9.388;2023-06-05T05:52:37;15.80;99.90
8662;DHT22;29684;47.722;9.388;2023-06-05T05:55:22;15.80;99.90
8662;DHT22;29684;47.722;9.388;2023-06-05T05:58:06;15.90;99.90
8662;DHT22;29684;47.722;9.388;2023-06-05T06:00:50;16.20;99.90
8662;DHT22;29684;47.722;9.388;2023-06-05T06:03:35;16.50;99.90
8662;DHT22;29684;47.722;9.388;2023-06-05T06:06:21;16.70;99.90
8662;DHT22;29684;47.722;9.388;2023-06-05T06:09:06;16.80;99.90
8662;DHT22;29684;47.722;9.388;2023-06-05T06:11:52;17.10;99.90
8662;DHT22;29684;47.722;9.388;2023-06-05T06:14:39;17.30;99.90
8662;DHT22;29684;47.722;9.388;2023-06-05T06:17:23;17.40;99.90
8662;DHT22;29684;47.722;9.388;2023-06-05T06:20:08;17.70;99.90
8662;DHT22;29684;47.722;9.388;2023-06-05T06:22:56;17.70;99.90
8662;DHT22;29684;47.722;9.388;2023-06-05T06:25:40;17.60;99.90
8662;DHT22;29684;47.722;9.388;2023-06-05T06:28:24;17.70;99.90
8662;DHT22;29684;47.722;9.388;2023-06-05T06:31:09;17.70;99.90
8662;DHT22;29684;47.722;9.388;2023-06-05T06:33:53;17.80;99.90
8662;DHT22;29684;47.722;9.388;2023-06-05T06:36:37;17.70;99.90
8662;DHT22;29684;47.722;9.388;2023-06-05T06:39:25;17.80;99.90
8662;DHT22;29684;47.722;9.388;2023-06-05T06:42:10;18.00;99.90
8662;DHT22;29684;47.722;9.388;2023-06-05T06:44:54;18.20;99.90
8662;DHT22;29684;47.722;9.388;2023-06-05T06:47:39;18.40;99.90
8662;DHT22;29684;47.722;9.388;2023-06-05T06:50:24;18.50;99.90
8662;DHT22;29684;47.722;9.388;2023-06-05T06:53:08;18.40;99.90
8662;DHT22;29684;47.722;9.388;2023-06-05T06:55:53;18.50;99.90
8662;DHT22;29684;47.722;9.388;2023-06-05T06:58:37;18.60;99.90
8662;DHT22;29684;47.722;9.388;2023-06-05T07:01:21;18.50;99.90
8662;DHT22;29684;47.722;9.388;2023-06-05T07:04:05;18.40;99.90
8662;DHT22;29684;47.722;9.388;2023-06-05T07:06:49;18.40;99.90
8662;DHT22;29684;47.722;9.388;2023-06-05T07:09:34;18.40;99.90
8662;DHT22;29684;47.722;9.388;2023-06-05T07:12:19;18.60;99.90
8662;DHT22;29684;47.722;9.388;2023-06-05T07:15:04;18.90;99.90
8662;DHT22;29684;47.722;9.388;2023-06-05T07:17:48;19.00;99.90
8662;DHT22;29684;47.722;9.388;2023-06-05T07:20:33;19.20;99.90
8662;DHT22;29684;47.722;9.388;2023-06-05T07:23:17;19.20;99.90
8662;DHT22;29684;47.722;9.388;2023-06-05T07:26:02;18.90;99.90
8662;DHT22;29684;47.722;9.388;2023-06-05T07:28:46;18.90;99.90
8662;DHT22;29684;47.722;9.388;2023-06-05T07:31:31;18.90;99.90
8662;DHT22;29684;47.722;9.388;2023-06-05T07:34:17;19.20;99.90
8662;DHT22;29684;47.722;9.388;2023-06-05T07:37:01;19.30;99.90
8662;DHT22;29684;47.722;9.388;2023-06-05T07:39:46;19.60;99.90
8662;DHT22;29684;47.722;9.388;2023-06-05T07:42:31;19.90;99.90
8662;DHT22;29684;47.722;9.388;2023-06-05T07:45:15;19.80;99.90
8662;DHT22;29684;47.722;9.388;2023-06-05T07:48:00;19.20;99.90
8662;DHT22;29684;47.722;9.388;2023-06-05T07:50:44;19.20;99.90
8662;DHT22;29684;47.722;9.388;2023-06-05T07:53:28;19.20;99.90
8662;DHT22;29684;47.722;9.388;2023-06-05T07:56:12;19.20;99.90
8662;DHT22;29684;47.722;9.388;2023-06-05T07:58:57;19.50;99.90
8662;DHT22;29684;47.722;9.388;2023-06-05T08:01:42;20.00;99.90
8662;DHT22;29684;47.722;9.388;2023-06-05T08:04:27;20.30;99.90
8662;DHT22;29684;47.722;9.388;2023-06-05T08:07:12;20.30;99.90
8662;DHT22;29684;47.722;9.388;2023-06-05T08:09:56;20.40;99.90
8662;DHT22;29684;47.722;9.388;2023-06-05T08:12:41;20.60;99.90
8662;DHT22;29684;47.722;9.388;2023-06-05T08:15:25;20.50;99.90
8662;DHT22;29684;47.722;9.388;2023-06-05T08:18:10;20.50;99.90
8662;DHT22;29684;47.722;9.388;2023-06-05T08:20:54;20.60;99.90
8662;DHT22;29684;47.722;9.388;2023-06-05T08:23:38;20.90;99.90
8662;DHT22;29684;47.722;9.388;2023-06-05T08:26:23;20.90;99.90
8662;DHT22;29684;47.722;9.388;2023-06-05T08:29:07;21.00;99.90
8662;DHT22;29684;47.722;9.388;2023-06-05T08:31:51;21.20;99.90
8662;DHT22;29684;47.722;9.388;2023-06-05T08:34:35;21.20;99.90
8662;DHT22;29684;47.722;9.388;2023-06-05T08:37:19;21.30;99.90
8662;DHT22;29684;47.722;9.388;2023-06-05T08:40:05;21.50;99.90
8662;DHT22;29684;47.722;9.388;2023-06-05T08:42:55;21.70;99.90
8662;DHT22;29684;47.722;9.388;2023-06-05T08:45:39;21.90;99.90
8662;DHT22;29684;47.722;9.388;2023-06-05T08:48:25;22.00;99.90
8662;DHT22;29684;47.722;9.388;2023-06-05T08:51:16;21.80;99.90
8662;DHT22;29684;47.722;9.388;2023-06-05T08:54:05;22.00;99.90
8662;DHT22;29684;47.722;9.388;2023-06-05T08:56:56;22.00;99.90
8662;DHT22;29684;47.722;9.388;2023-06-05T08:59:41;22.20;99.90
8662;DHT22;29684;47.722;9.388;2023-06-05T09:02:26;22.40;99.90
8662;DHT22;29684;47.722;9.388;2023-06-05T09:05:10;22.50;99.90
8662;DHT22;29684;47.722;9.388;2023-06-05T09:07:56;22.50;99.90
8662;DHT22;29684;47.722;9.388;2023-06-05T09:10:40;22.70;99.90
8662;DHT22;29684;47.722;9.388;2023-06-05T09:13:25;22.50;99.90
8662;DHT22;29684;47.722;9.388;2023-06-05T09:16:40;22.50;99.90
8662;DHT22;29684;47.722;9.388;2023-06-05T09:19:40;22.60;99.90
8662;DHT22;29684;47.722;9.388;2023-06-05T09:22:33;22.70;99.90
8662;DHT22;29684;47.722;9.388;2023-06-05T09:25:18;23.00;99.90
8662;DHT22;29684;47.722;9.388;2023-06-05T09:28:06;23.30;99.90
8662;DHT22;29684;47.722;9.388;2023-06-05T09:31:04;22.80;99.90
8662;DHT22;29684;47.722;9.388;2023-06-05T09:33:55;23.20;99.90
8662;DHT22;29684;47.722;9.388;2023-06-05T09:36:45;23.70;99.90
8662;DHT22;29684;47.722;9.388;2023-06-05T09:39:31;23.70;99.90
8662;DHT22;29684;47.722;9.388;2023-06-05T09:42:15;23.70;99.90
8662;DHT22;29684;47.722;9.388;2023-06-05T09:44:59;23.90;99.90
8662;DHT22;29684;47.722;9.388;2023-06-05T09:47:44;24.00;99.90
8662;DHT22;29684;47.722;9.388;2023-06-05T09:50:29;24.30;99.90
8662;DHT22;29684;47.722;9.388;2023-06-05T09:53:17;24.70;99.90
8662;DHT22;29684;47.722;9.388;2023-06-05T09:56:04;24.70;99.90
8662;DHT22;29684;47.722;9.388;2023-06-05T09:58:50;24.70;99.90
8662;DHT22;29684;47.722;9.388;2023-06-05T10:01:40;24.90;99.90
8662;DHT22;29684;47.722;9.388;2023-06-05T10:04:27;25.10;99.90
8662;DHT22;29684;47.722;9.388;2023-06-05T10:07:13;25.00;99.90
8662;DHT22;29684;47.722;9.388;2023-06-05T10:09:58;24.80;99.90
8662;DHT22;29684;47.722;9.388;2023-06-05T10:12:42;24.60;99.90
8662;DHT22;29684;47.722;9.388;2023-06-05T10:15:27;24.70;99.90
8662;DHT22;29684;47.722;9.388;2023-06-05T10:18:12;24.80;99.90
8662;DHT22;29684;47.722;9.388;2023-06-05T10:20:57;24.90;99.90
8662;DHT22;29684;47.722;9.388;2023-06-05T10:23:48;25.00;99.90
8662;DHT22;29684;47.722;9.388;2023-06-05T10:35:45;25.60;99.90
8662;DHT22;29684;47.722;9.388;2023-06-05T10:38:32;25.30;99.90
8662;DHT22;29684;47.722;9.388;2023-06-05T10:41:17;25.90;99.10
8662;DHT22;29684;47.722;9.388;2023-06-05T10:44:02;26.40;98.10
8662;DHT22;29684;47.722;9.388;2023-06-05T10:46:47;26.10;97.60
8662;DHT22;29684;47.722;9.388;2023-06-05T10:49:31;26.00;97.90
8662;DHT22;29684;47.722;9.388;2023-06-05T10:52:34;26.20;97.50
8662;DHT22;29684;47.722;9.388;2023-06-05T10:55:20;26.00;97.60
8662;DHT22;29684;47.722;9.388;2023-06-05T11:01:16;25.70;98.10
8662;DHT22;29684;47.722;9.388;2023-06-05T11:04:01;26.30;97.50
8662;DHT22;29684;47.722;9.388;2023-06-05T11:07:17;26.80;96.80
8662;DHT22;29684;47.722;9.388;2023-06-05T11:12:53;27.20;95.60
8662;DHT22;29684;47.722;9.388;2023-06-05T11:15:41;26.50;96.30
8662;DHT22;29684;47.722;9.388;2023-06-05T11:18:34;26.70;96.30
8662;DHT22;29684;47.722;9.388;2023-06-05T11:21:18;26.20;95.90
8662;DHT22;29684;47.722;9.388;2023-06-05T11:24:15;25.90;96.00
8662;DHT22;29684;47.722;9.388;2023-06-05T11:27:02;26.20;95.40
8662;DHT22;29684;47.722;9.388;2023-06-05T11:29:48;26.50;95.90
8662;DHT22;29684;47.722;9.388;2023-06-05T11:32:33;27.10;95.70
8662;DHT22;29684;47.722;9.388;2023-06-05T11:35:21;27.20;95.60
8662;DHT22;29684;47.722;9.388;2023-06-05T11:38:08;27.10;95.50
8662;DHT22;29684;47.722;9.388;2023-06-05T11:40:53;27.20;94.90
8662;DHT22;29684;47.722;9.388;2023-06-05T11:43:42;26.80;95.30
8662;DHT22;29684;47.722;9.388;2023-06-05T11:46:40;26.80;94.90
8662;DHT22;29684;47.722;9.388;2023-06-05T11:49:26;26.50;94.10
8662;DHT22;29684;47.722;9.388;2023-06-05T11:52:20;25.90;94.20
8662;DHT22;29684;47.722;9.388;2023-06-05T11:55:13;25.60;94.60
8662;DHT22;29684;47.722;9.388;2023-06-05T11:58:00;26.00;94.10
8662;DHT22;29684;47.722;9.388;2023-06-05T12:00:44;26.10;94.50
8662;DHT22;29684;47.722;9.388;2023-06-05T12:03:29;25.60;94.60
8662;DHT22;29684;47.722;9.388;2023-06-05T12:06:14;25.70;95.00
8662;DHT22;29684;47.722;9.388;2023-06-05T12:09:10;26.30;94.40
8662;DHT22;29684;47.722;9.388;2023-06-05T12:12:08;26.70;94.10
8662;DHT22;29684;47.722;9.388;2023-06-05T12:14:52;27.10;93.70
8662;DHT22;29684;47.722;9.388;2023-06-05T12:17:38;27.10;93.40
8662;DHT22;29684;47.722;9.388;2023-06-05T12:20:22;26.60;93.60
8662;DHT22;29684;47.722;9.388;2023-06-05T12:23:07;26.60;93.10
8662;DHT22;29684;47.722;9.388;2023-06-05T12:26:04;26.80;92.80
8662;DHT22;29684;47.722;9.388;2023-06-05T12:28:48;26.70;92.70
8662;DHT22;29684;47.722;9.388;2023-06-05T12:31:36;26.60;93.20
8662;DHT22;29684;47.722;9.388;2023-06-05T12:34:43;26.50;93.60
8662;DHT22;29684;47.722;9.388;2023-06-05T12:37:34;26.70;92.50
8662;DHT22;29684;47.722;9.388;2023-06-05T12:40:21;26.80;92.20
8662;DHT22;29684;47.722;9.388;2023-06-05T12:43:16;26.50;91.60
8662;DHT22;29684;47.722;9.388;2023-06-05T12:46:02;26.30;91.60
8662;DHT22;29684;47.722;9.388;2023-06-05T12:48:46;26.00;91.90
8662;DHT22;29684;47.722;9.388;2023-06-05T12:51:30;25.70;92.20
8662;DHT22;29684;47.722;9.388;2023-06-05T12:54:15;25.80;92.50
8662;DHT22;29684;47.722;9.388;2023-06-05T12:57:03;25.80;92.90
8662;DHT22;29684;47.722;9.388;2023-06-05T12:59:52;25.70;92.70
8662;DHT22;29684;47.722;9.388;2023-06-05T13:02:37;25.70;92.60
8662;DHT22;29684;47.722;9.388;2023-06-05T13:05:21;25.70;92.00
8662;DHT22;29684;47.722;9.388;2023-06-05T13:08:05;26.70;91.50
8662;DHT22;29684;47.722;9.388;2023-06-05T13:10:50;27.50;91.10
8662;DHT22;29684;47.722;9.388;2023-06-05T13:13:36;28.60;90.50
8662;DHT22;29684;47.722;9.388;2023-06-05T13:16:20;30.40;89.40
8662;DHT22;29684;47.722;9.388;2023-06-05T13:19:04;31.00;87.10
8662;DHT22;29684;47.722;9.388;2023-06-05T13:21:50;31.40;84.30
8662;DHT22;29684;47.722;9.388;2023-06-05T13:24:34;30.20;85.20
8662;DHT22;29684;47.722;9.388;2023-06-05T13:27:18;29.30;84.90
8662;DHT22;29684;47.722;9.388;2023-06-05T13:30:03;29.20;86.70
8662;DHT22;29684;47.722;9.388;2023-06-05T13:32:48;28.40;87.20
8662;DHT22;29684;47.722;9.388;2023-06-05T13:35:32;27.50;86.50
8662;DHT22;29684;47.722;9.388;2023-06-05T13:38:16;27.30;86.40
8662;DHT22;29684;47.722;9.388;2023-06-05T13:41:00;29.00;85.00
8662;DHT22;29684;47.722;9.388;2023-06-05T13:43:45;30.40;82.40
8662;DHT22;29684;47.722;9.388;2023-06-05T13:46:29;31.60;78.40
8662;DHT22;29684;47.722;9.388;2023-06-05T13:49:13;32.50;74.50
8662;DHT22;29684;47.722;9.388;2023-06-05T13:51:57;32.60;73.90
8662;DHT22;29684;47.722;9.388;2023-06-05T13:54:41;31.70;73.20
8662;DHT22;29684;47.722;9.388;2023-06-05T13:57:27;30.90;74.90
8662;DHT22;29684;47.722;9.388;2023-06-05T14:00:11;29.00;78.10
8662;DHT22;29684;47.722;9.388;2023-06-05T14:02:59;28.90;77.20
8662;DHT22;29684;47.722;9.388;2023-06-05T14:05:43;30.30;76.00
8662;DHT22;29684;47.722;9.388;2023-06-05T14:08:27;29.70;75.50
8662;DHT22;29684;47.722;9.388;2023-06-05T14:11:12;29.80;75.70
8662;DHT22;29684;47.722;9.388;2023-06-05T14:13:57;30.50;73.40
8662;DHT22;29684;47.722;9.388;2023-06-05T14:16:41;31.80;71.70
8662;DHT22;29684;47.722;9.388;2023-06-05T14:19:25;32.60;68.30
8662;DHT22;29684;47.722;9.388;2023-06-05T14:22:09;32.50;67.50
8662;DHT22;29684;47.722;9.388;2023-06-05T14:24:54;34.10;66.90
8662;DHT22;29684;47.722;9.388;2023-06-05T14:27:38;35.60;63.80
8662;DHT22;29684;47.722;9.388;2023-06-05T14:30:23;34.90;62.90
8662;DHT22;29684;47.722;9.388;2023-06-05T14:33:07;35.30;62.30
8662;DHT22;29684;47.722;9.388;2023-06-05T14:35:51;34.10;62.60
8662;DHT22;29684;47.722;9.388;2023-06-05T14:38:36;32.60;63.30
8662;DHT22;29684;47.722;9.388;2023-06-05T14:41:19;31.00;64.50
8662;DHT22;29684;47.722;9.388;2023-06-05T14:44:04;31.20;64.00
8662;DHT22;29684;47.722;9.388;2023-06-05T14:46:49;32.00;62.30
8662;DHT22;29684;47.722;9.388;2023-06-05T14:49:33;33.30;60.80
8662;DHT22;29684;47.722;9.388;2023-06-05T14:52:17;34.60;59.70
8662;DHT22;29684;47.722;9.388;2023-06-05T14:55:03;35.30;57.90
8662;DHT22;29684;47.722;9.388;2023-06-05T14:57:47;36.20;57.10
8662;DHT22;29684;47.722;9.388;2023-06-05T15:00:31;36.20;56.20
8662;DHT22;29684;47.722;9.388;2023-06-05T15:03:15;35.50;56.90
8662;DHT22;29684;47.722;9.388;2023-06-05T15:06:00;36.00;55.50
8662;DHT22;29684;47.722;9.388;2023-06-05T15:08:44;33.50;56.60
8662;DHT22;29684;47.722;9.388;2023-06-05T15:11:29;33.20;57.80
8662;DHT22;29684;47.722;9.388;2023-06-05T15:14:13;32.30;57.00
8662;DHT22;29684;47.722;9.388;2023-06-05T15:16:57;31.40;56.70
8662;DHT22;29684;47.722;9.388;2023-06-05T15:19:41;30.00;57.40
8662;DHT22;29684;47.722;9.388;2023-06-05T15:22:26;31.20;57.10
8662;DHT22;29684;47.722;9.388;2023-06-05T15:25:11;31.90;56.60
8662;DHT22;29684;47.722;9.388;2023-06-05T15:27:55;32.30;56.30
8662;DHT22;29684;47.722;9.388;2023-06-05T15:30:39;33.10;55.80
8662;DHT22;29684;47.722;9.388;2023-06-05T15:33:23;33.10;55.00
8662;DHT22;29684;47.722;9.388;2023-06-05T15:36:18;33.60;55.00
8662;DHT22;29684;47.722;9.388;2023-06-05T15:39:02;35.00;55.20
8662;DHT22;29684;47.722;9.388;2023-06-05T15:41:46;34.10;53.50
8662;DHT22;29684;47.722;9.388;2023-06-05T15:44:30;34.50;53.60
8662;DHT22;29684;47.722;9.388;2023-06-05T15:47:26;34.40;53.00
8662;DHT22;29684;47.722;9.388;2023-06-05T15:50:14;35.20;51.50
8662;DHT22;29684;47.722;9.388;2023-06-05T15:52:58;35.50;51.90
8662;DHT22;29684;47.722;9.388;2023-06-05T15:55:42;36.50;50.50
8662;DHT22;29684;47.722;9.388;2023-06-05T15:58:26;35.90;50.90
8662;DHT22;29684;47.722;9.388;2023-06-05T16:01:10;36.10;49.90
8662;DHT22;29684;47.722;9.388;2023-06-05T16:03:54;35.50;50.30
8662;DHT22;29684;47.722;9.388;2023-06-05T16:06:39;35.60;49.90
8662;DHT22;29684;47.722;9.388;2023-06-05T16:09:26;35.70;49.10
8662;DHT22;29684;47.722;9.388;2023-06-05T16:12:10;34.50;49.00
8662;DHT22;29684;47.722;9.388;2023-06-05T16:14:55;34.50;49.10
8662;DHT22;29684;47.722;9.388;2023-06-05T16:17:39;34.90;49.00
8662;DHT22;29684;47.722;9.388;2023-06-05T16:20:24;35.90;47.80
8662;DHT22;29684;47.722;9.388;2023-06-05T16:23:08;34.90;48.20
8662;DHT22;29684;47.722;9.388;2023-06-05T16:25:54;34.40;48.40
8662;DHT22;29684;47.722;9.388;2023-06-05T16:28:38;34.10;48.30
8662;DHT22;29684;47.722;9.388;2023-06-05T16:31:23;33.90;48.20
8662;DHT22;29684;47.722;9.388;2023-06-05T16:34:12;33.90;47.40
8662;DHT22;29684;47.722;9.388;2023-06-05T16:36:56;34.70;47.40
8662;DHT22;29684;47.722;9.388;2023-06-05T16:39:40;33.60;47.90
8662;DHT22;29684;47.722;9.388;2023-06-05T16:42:25;33.60;48.00
8662;DHT22;29684;47.722;9.388;2023-06-05T16:45:10;33.60;48.60
8662;DHT22;29684;47.722;9.388;2023-06-05T16:47:55;33.90;48.50
8662;DHT22;29684;47.722;9.388;2023-06-05T16:50:39;35.30;47.60
8662;DHT22;29684;47.722;9.388;2023-06-05T16:53:27;34.50;48.00
8662;DHT22;29684;47.722;9.388;2023-06-05T16:56:11;34.10;48.20
8662;DHT22;29684;47.722;9.388;2023-06-05T16:58:55;34.30;48.30
8662;DHT22;29684;47.722;9.388;2023-06-05T17:01:40;33.00;47.30
8662;DHT22;29684;47.722;9.388;2023-06-05T17:04:25;32.00;48.40
8662;DHT22;29684;47.722;9.388;2023-06-05T17:07:11;31.50;49.20
8662;DHT22;29684;47.722;9.388;2023-06-05T17:09:55;32.50;49.10
8662;DHT22;29684;47.722;9.388;2023-06-05T17:12:39;33.30;48.70
8662;DHT22;29684;47.722;9.388;2023-06-05T17:15:25;33.30;48.40
8662;DHT22;29684;47.722;9.388;2023-06-05T17:18:09;33.20;48.50
8662;DHT22;29684;47.722;9.388;2023-06-05T17:20:53;33.20;48.60
8662;DHT22;29684;47.722;9.388;2023-06-05T17:23:37;31.70;49.30
8662;DHT22;29684;47.722;9.388;2023-06-05T17:26:21;31.50;50.40
8662;DHT22;29684;47.722;9.388;2023-06-05T17:29:08;32.50;49.70
8662;DHT22;29684;47.722;9.388;2023-06-05T17:31:53;32.40;50.50
8662;DHT22;29684;47.722;9.388;2023-06-05T17:34:39;32.40;49.70
8662;DHT22;29684;47.722;9.388;2023-06-05T17:37:23;32.60;49.60
8662;DHT22;29684;47.722;9.388;2023-06-05T17:40:07;32.10;49.50
8662;DHT22;29684;47.722;9.388;2023-06-05T17:42:52;31.50;49.90
8662;DHT22;29684;47.722;9.388;2023-06-05T17:45:37;30.60;50.80
8662;DHT22;29684;47.722;9.388;2023-06-05T17:48:21;30.00;50.90
8662;DHT22;29684;47.722;9.388;2023-06-05T17:51:05;30.50;51.00
8662;DHT22;29684;47.722;9.388;2023-06-05T17:53:50;30.70;51.60
8662;DHT22;29684;47.722;9.388;2023-06-05T17:56:35;30.90;51.70
8662;DHT22;29684;47.722;9.388;2023-06-05T17:59:21;30.40;51.70